Time;durP1;ratioP1;P1;durP2;ratioP2;P2;SDS_P1;SDS_P2;PMS_P1;PMS_P2;Temp;Humidity;BMP_temperature;BMP_pressure;BME280_temperature;BME280_humidity;BME280_pressure;Samples;Min_cycle;Max_cycle;Signal;HPM_P1;HPM_P2
2022/05/11 00:01:35;;;;;;;6.35;2.40;;;;;;;;;;5148394;27;20054;-78
2022/05/11 00:04:02;;;;;;;5.85;2.20;;;;;;;;;;5143139;27;20085;-78
2022/05/11 00:06:28;;;;;;;6.07;2.30;;;;;;;;;;5146035;27;20527;-78
2022/05/11 00:08:56;;;;;;;8.32;2.33;;;;;;;;;;5145375;27;20065;-78
2022/05/11 00:11:23;;;;;;;7.18;2.10;;;;;;;;;;5147682;27;20055;-77
2022/05/11 00:13:49;;;;;;;5.18;2.30;;;;;;;;;;5147320;27;20130;-78
2022/05/11 00:16:16;;;;;;;5.93;2.22;;;;;;;;;;5148457;27;20061;-78
2022/05/11 00:18:42;;;;;;;7.30;2.30;;;;;;;;;;5146384;27;20047;-78
2022/05/11 00:21:09;;;;;;;6.60;2.13;;;;;;;;;;5143957;27;20112;-78
2022/05/11 00:23:35;;;;;;;7.38;2.20;;;;;;;;;;5146289;27;20047;-78
2022/05/11 00:26:02;;;;;;;6.70;2.95;;;;;;;;;;5151990;27;20061;-78
2022/05/11 00:28:28;;;;;;;5.95;2.40;;;;;;;;;;5145998;27;20055;-79
2022/05/11 00:30:54;;;;;;;6.45;2.47;;;;;;;;;;5158926;27;20138;-77
2022/05/11 00:33:21;;;;;;;6.55;2.50;;;;;;;;;;5152596;27;20100;-78
2022/05/11 00:35:49;;;;;;;7.38;2.90;;;;;;;;;;5148577;27;20476;-79
2022/05/11 00:38:16;;;;;;;6.38;2.55;;;;;;;;;;5145488;27;20134;-78
2022/05/11 00:40:44;;;;;;;5.05;2.45;;;;;;;;;;5143434;27;20491;-78
2022/05/11 00:43:10;;;;;;;6.53;2.70;;;;;;;;;;5145335;27;20180;-78
2022/05/11 00:45:39;;;;;;;8.95;2.60;;;;;;;;;;5150843;27;20091;-78
2022/05/11 00:49:33;;;;;;;5.55;2.70;;;;;;;;;;5145405;27;20242;-78
2022/05/11 00:50:54;;;;;;;6.50;2.83;;;;;;;;;;5145553;27;20606;-78
2022/05/11 00:53:21;;;;;;;6.45;2.90;;;;;;;;;;5145730;27;20054;-78
2022/05/11 00:55:49;;;;;;;7.28;3.22;;;;;;;;;;5146407;27;20142;-78
2022/05/11 00:58:19;;;;;;;7.43;3.00;;;;;;;;;;5146880;27;20061;-78
2022/05/11 01:00:46;;;;;;;8.70;2.90;;;;;;;;;;5144045;27;20078;-79
2022/05/11 01:03:14;;;;;;;8.02;3.50;;;;;;;;;;5145736;27;20577;-79
2022/05/11 01:05:40;;;;;;;8.10;3.45;;;;;;;;;;5145908;27;20051;-78
2022/05/11 01:08:07;;;;;;;8.20;3.10;;;;;;;;;;5146106;27;20541;-78
2022/05/11 01:10:33;;;;;;;7.13;3.10;;;;;;;;;;5142864;27;20055;-78
2022/05/11 01:13:04;;;;;;;8.55;3.35;;;;;;;;;;5144991;27;20073;-78
2022/05/11 01:15:31;;;;;;;8.05;3.00;;;;;;;;;;5145650;27;20051;-78
2022/05/11 01:17:58;;;;;;;6.95;2.85;;;;;;;;;;5146780;27;20047;-78
2022/05/11 01:20:25;;;;;;;8.05;3.30;;;;;;;;;;5144815;27;20051;-79
2022/05/11 01:23:10;;;;;;;9.75;3.35;;;;;;;;;;5143219;27;20154;-78
2022/05/11 01:25:37;;;;;;;9.48;3.42;;;;;;;;;;5143649;27;20154;-78
2022/05/11 01:28:11;;;;;;;8.98;3.20;;;;;;;;;;5142918;27;20055;-78
2022/05/11 01:30:38;;;;;;;8.57;4.10;;;;;;;;;;5146658;27;20515;-78
2022/05/11 01:33:05;;;;;;;9.07;3.65;;;;;;;;;;5143050;27;20151;-78
2022/05/11 01:35:47;;;;;;;11.50;3.53;;;;;;;;;;5145145;27;20051;-78
2022/05/11 01:38:32;;;;;;;7.00;3.83;;;;;;;;;;5144584;27;20082;-78
2022/05/11 01:40:59;;;;;;;7.93;3.60;;;;;;;;;;5140342;27;20533;-78
2022/05/11 01:43:26;;;;;;;8.88;3.60;;;;;;;;;;5137578;27;20606;-77
2022/05/11 01:45:53;;;;;;;8.05;3.97;;;;;;;;;;5138212;27;20134;-77
2022/05/11 01:48:19;;;;;;;10.75;4.10;;;;;;;;;;5143693;27;20563;-78
2022/05/11 01:50:46;;;;;;;7.93;3.78;;;;;;;;;;5144136;27;20066;-78
2022/05/11 01:53:13;;;;;;;7.93;3.60;;;;;;;;;;5148548;27;20626;-78
2022/05/11 01:55:39;;;;;;;8.35;4.00;;;;;;;;;;5152973;27;20062;-78
2022/05/11 01:58:09;;;;;;;8.20;3.80;;;;;;;;;;5150103;27;20069;-77
2022/05/11 02:00:36;;;;;;;10.35;4.15;;;;;;;;;;5147872;27;20175;-78
2022/05/11 02:03:03;;;;;;;10.82;3.92;;;;;;;;;;5147499;27;20529;-78
2022/05/11 02:08:14;;;;;;;9.43;3.90;;;;;;;;;;5149214;27;20578;-78
2022/05/11 02:10:40;;;;;;;7.00;3.78;;;;;;;;;;5145926;27;20899;-78
2022/05/11 02:13:07;;;;;;;6.78;3.67;;;;;;;;;;5147803;27;20438;-78
2022/05/11 02:15:36;;;;;;;11.68;4.38;;;;;;;;;;5149856;27;20057;-79
2022/05/11 02:18:02;;;;;;;8.80;3.75;;;;;;;;;;5147800;27;20051;-78
2022/05/11 02:20:29;;;;;;;8.48;3.83;;;;;;;;;;5147865;27;20051;-78
2022/05/11 02:22:55;;;;;;;13.50;4.00;;;;;;;;;;5147139;27;20067;-78
2022/05/11 02:25:22;;;;;;;8.77;4.18;;;;;;;;;;5149451;27;20070;-78
2022/05/11 02:27:49;;;;;;;7.38;3.95;;;;;;;;;;5147895;27;20595;-78
2022/05/11 02:30:20;;;;;;;8.95;4.65;;;;;;;;;;5147359;27;20128;-78
2022/05/11 02:32:47;;;;;;;11.45;4.68;;;;;;;;;;5140890;27;20817;-79
2022/05/11 02:35:14;;;;;;;9.23;4.38;;;;;;;;;;5149150;27;20059;-79
2022/05/11 02:37:42;;;;;;;6.85;3.88;;;;;;;;;;5153686;27;20047;-79
2022/05/11 02:40:10;;;;;;;8.45;3.88;;;;;;;;;;5143151;27;20081;-78
2022/05/11 02:42:36;;;;;;;9.35;4.22;;;;;;;;;;5146165;27;20108;-77
2022/05/11 02:45:03;;;;;;;9.75;4.10;;;;;;;;;;5146981;27;20103;-78
2022/05/11 02:47:30;;;;;;;10.32;4.63;;;;;;;;;;5152118;27;20511;-78
2022/05/11 02:49:57;;;;;;;9.73;4.10;;;;;;;;;;5145636;27;20070;-78
2022/05/11 02:52:23;;;;;;;9.50;4.50;;;;;;;;;;5147263;27;20148;-78
2022/05/11 02:54:50;;;;;;;9.25;4.10;;;;;;;;;;5145029;27;20151;-78
2022/05/11 02:57:16;;;;;;;8.75;4.07;;;;;;;;;;5149668;27;20054;-78
2022/05/11 02:59:44;;;;;;;12.25;4.28;;;;;;;;;;5147808;27;20056;-78
2022/05/11 03:02:10;;;;;;;7.80;3.85;;;;;;;;;;5147719;27;20058;-78
2022/05/11 03:04:36;;;;;;;8.32;3.95;;;;;;;;;;5147547;27;20058;-78
2022/05/11 03:07:03;;;;;;;10.48;4.10;;;;;;;;;;5145879;27;20082;-78
2022/05/11 03:09:29;;;;;;;8.35;4.28;;;;;;;;;;5146455;27;20494;-78
2022/05/11 03:11:56;;;;;;;7.97;3.22;;;;;;;;;;5147636;27;20584;-78
2022/05/11 03:14:22;;;;;;;7.13;3.65;;;;;;;;;;5147775;27;20647;-78
2022/05/11 03:16:48;;;;;;;7.30;3.03;;;;;;;;;;5150369;27;20061;-79
2022/05/11 03:19:15;;;;;;;7.63;3.03;;;;;;;;;;5145488;27;20051;-78
2022/05/11 03:21:41;;;;;;;7.10;3.20;;;;;;;;;;5147900;27;20051;-78
2022/05/11 03:24:08;;;;;;;7.50;2.88;;;;;;;;;;5145889;27;20079;-78
2022/05/11 03:26:35;;;;;;;9.15;2.97;;;;;;;;;;5152075;27;20138;-78
2022/05/11 03:29:05;;;;;;;7.07;3.05;;;;;;;;;;5162315;27;20535;-78
2022/05/11 03:31:35;;;;;;;6.57;2.65;;;;;;;;;;5146472;27;20051;-78
2022/05/11 03:36:50;;;;;;;7.57;2.95;;;;;;;;;;5145496;27;45911;-78
2022/05/11 03:39:16;;;;;;;7.03;2.75;;;;;;;;;;5144922;27;21019;-78
2022/05/11 03:41:45;;;;;;;7.38;2.70;;;;;;;;;;5144975;27;20058;-78
2022/05/11 03:44:12;;;;;;;7.45;2.85;;;;;;;;;;5145888;27;20079;-77
2022/05/11 03:46:38;;;;;;;5.65;2.63;;;;;;;;;;5144951;27;20126;-78
2022/05/11 03:49:05;;;;;;;7.10;2.80;;;;;;;;;;5144167;27;20078;-78
2022/05/11 03:51:31;;;;;;;7.35;2.80;;;;;;;;;;5146049;27;20150;-78
2022/05/11 03:53:57;;;;;;;8.00;2.75;;;;;;;;;;5145475;27;20047;-78
2022/05/11 03:56:24;;;;;;;9.48;2.78;;;;;;;;;;5137786;27;20062;-78
2022/05/11 03:58:50;;;;;;;8.10;2.22;;;;;;;;;;5144614;27;20131;-78
2022/05/11 04:01:17;;;;;;;9.63;2.58;;;;;;;;;;5139266;27;20170;-78
2022/05/11 04:03:45;;;;;;;9.93;2.25;;;;;;;;;;5144528;27;20486;-78
2022/05/11 04:06:11;;;;;;;7.57;2.50;;;;;;;;;;5146630;27;20162;-78
2022/05/11 04:08:38;;;;;;;7.47;2.72;;;;;;;;;;5146625;27;20058;-79
2022/05/11 04:11:05;;;;;;;7.43;2.38;;;;;;;;;;5146082;27;20047;-78
2022/05/11 04:13:31;;;;;;;7.97;2.60;;;;;;;;;;5146439;27;20086;-78
2022/05/11 04:15:57;;;;;;;9.27;2.40;;;;;;;;;;5158829;27;20187;-78
2022/05/11 04:18:24;;;;;;;11.13;2.20;;;;;;;;;;5146835;27;20061;-79
2022/05/11 04:20:50;;;;;;;5.13;1.95;;;;;;;;;;5143373;27;20198;-80
2022/05/11 04:23:17;;;;;;;7.13;2.17;;;;;;;;;;5147536;27;20130;-79
2022/05/11 04:25:43;;;;;;;5.50;1.95;;;;;;;;;;5149589;27;20043;-79
2022/05/11 04:28:14;;;;;;;5.38;1.95;;;;;;;;;;5149816;27;20103;-79
2022/05/11 04:30:40;;;;;;;7.32;2.00;;;;;;;;;;5146246;27;20127;-79
2022/05/11 04:33:07;;;;;;;7.38;2.05;;;;;;;;;;5145370;27;20138;-78
2022/05/11 04:35:34;;;;;;;6.00;1.90;;;;;;;;;;5138121;27;20065;-78
2022/05/11 04:38:01;;;;;;;6.82;1.90;;;;;;;;;;5146311;27;20055;-78
2022/05/11 04:40:28;;;;;;;4.93;1.60;;;;;;;;;;5143358;27;20053;-78
2022/05/11 04:42:54;;;;;;;6.80;1.67;;;;;;;;;;5155947;27;20178;-78
2022/05/11 04:45:21;;;;;;;7.93;1.88;;;;;;;;;;5148359;27;20059;-78
2022/05/11 04:47:47;;;;;;;4.95;1.50;;;;;;;;;;5145196;27;20495;-77
2022/05/11 04:50:14;;;;;;;5.85;1.90;;;;;;;;;;5142208;27;20051;-77
2022/05/11 04:52:44;;;;;;;;;;;;;;;;;;5138561;27;20077;-78
2022/05/11 04:55:11;;;;;;;6.63;1.83;;;;;;;;;;5145430;27;45050;-78
2022/05/11 04:57:38;;;;;;;6.15;1.70;;;;;;;;;;5152486;27;20773;-78
2022/05/11 05:00:09;;;;;;;3.72;1.35;;;;;;;;;;5153393;27;20047;-78
2022/05/11 05:02:36;;;;;;;8.25;1.67;;;;;;;;;;5151702;27;20049;-79
2022/05/11 05:05:05;;;;;;;4.47;1.50;;;;;;;;;;5141325;27;20058;-79
2022/05/11 05:07:35;;;;;;;6.63;1.48;;;;;;;;;;5145941;27;21351;-79
2022/05/11 05:10:03;;;;;;;5.85;1.50;;;;;;;;;;5152577;27;20051;-79
2022/05/11 05:12:29;;;;;;;4.00;1.35;;;;;;;;;;5152747;27;20134;-79
2022/05/11 05:14:56;;;;;;;6.25;1.40;;;;;;;;;;5152972;27;20059;-79
2022/05/11 05:17:22;;;;;;;5.97;1.48;;;;;;;;;;5148266;27;20098;-79
2022/05/11 05:19:49;;;;;;;6.50;1.33;;;;;;;;;;5142554;27;20051;-79
2022/05/11 05:22:15;;;;;;;5.32;1.58;;;;;;;;;;5147549;27;20070;-80
2022/05/11 05:24:42;;;;;;;5.72;1.20;;;;;;;;;;5150146;27;20073;-79
2022/05/11 05:27:13;;;;;;;7.25;1.73;;;;;;;;;;5147523;27;20112;-79
2022/05/11 05:32:25;;;;;;;6.75;1.10;;;;;;;;;;5149357;27;46628;-81
2022/05/11 05:34:51;;;;;;;4.35;0.90;;;;;;;;;;5151896;27;20858;-80
2022/05/11 05:37:18;;;;;;;6.30;1.50;;;;;;;;;;5152002;27;20055;-80
2022/05/11 05:39:45;;;;;;;3.88;1.08;;;;;;;;;;5147889;27;20057;-79
2022/05/11 05:42:21;;;;;;;6.32;1.10;;;;;;;;;;5149612;27;20531;-79
2022/05/11 05:44:48;;;;;;;3.95;1.17;;;;;;;;;;5149450;27;20358;-79
2022/05/11 05:47:16;;;;;;;4.82;1.00;;;;;;;;;;5168486;27;20082;-79
2022/05/11 05:49:42;;;;;;;5.57;1.00;;;;;;;;;;5152805;27;20052;-79
2022/05/11 05:52:14;;;;;;;3.80;0.93;;;;;;;;;;5150632;27;20078;-79
2022/05/11 05:54:40;;;;;;;6.43;1.20;;;;;;;;;;5145340;27;20052;-79
2022/05/11 05:57:06;;;;;;;4.88;0.95;;;;;;;;;;5146466;27;20461;-79
2022/05/11 05:59:33;;;;;;;5.30;1.15;;;;;;;;;;5150745;27;20051;-80
2022/05/11 06:01:59;;;;;;;7.43;1.13;;;;;;;;;;5145693;27;20067;-79
2022/05/11 06:04:26;;;;;;;4.43;0.90;;;;;;;;;;5145742;27;20572;-79
2022/05/11 06:06:53;;;;;;;7.03;1.30;;;;;;;;;;5144953;27;20055;-79
2022/05/11 06:09:20;;;;;;;5.45;1.10;;;;;;;;;;5143448;27;20060;-78
2022/05/11 06:11:46;;;;;;;5.75;0.90;;;;;;;;;;5141009;27;20122;-78
2022/05/11 06:14:13;;;;;;;4.55;0.80;;;;;;;;;;5141980;27;20043;-79
2022/05/11 06:16:39;;;;;;;4.53;0.82;;;;;;;;;;5149540;27;20089;-79
2022/05/11 06:19:05;;;;;;;7.72;0.93;;;;;;;;;;5146519;27;20059;-79
2022/05/11 06:21:33;;;;;;;6.93;1.08;;;;;;;;;;5146939;27;20039;-79
2022/05/11 06:24:00;;;;;;;5.78;1.00;;;;;;;;;;5139905;27;20051;-79
2022/05/11 06:26:26;;;;;;;3.83;1.10;;;;;;;;;;5166034;27;20065;-79
2022/05/11 06:29:12;;;;;;;5.03;0.95;;;;;;;;;;5148114;27;20051;-79
2022/05/11 06:31:39;;;;;;;3.85;0.80;;;;;;;;;;5146594;27;20051;-79
2022/05/11 06:34:08;;;;;;;3.40;0.90;;;;;;;;;;5147402;27;20919;-80
2022/05/11 06:36:34;;;;;;;5.45;0.93;;;;;;;;;;5144650;27;20071;-79
2022/05/11 06:39:01;;;;;;;5.95;1.30;;;;;;;;;;5147379;27;20571;-79
2022/05/11 06:41:28;;;;;;;4.85;1.02;;;;;;;;;;5148283;27;20130;-79
2022/05/11 06:43:54;;;;;;;5.50;1.10;;;;;;;;;;5147761;27;20479;-79
2022/05/11 06:46:21;;;;;;;5.18;1.40;;;;;;;;;;5153509;27;20043;-79
2022/05/11 06:48:49;;;;;;;5.53;1.05;;;;;;;;;;5145519;27;20053;-79
2022/05/11 06:51:16;;;;;;;4.82;0.90;;;;;;;;;;5153286;27;20051;-79
2022/05/11 06:59:21;;;;;;;6.07;0.95;;;;;;;;;;5147072;27;20055;-78
2022/05/11 07:01:49;;;;;;;10.10;1.40;;;;;;;;;;5166265;27;20047;-79
2022/05/11 07:04:15;;;;;;;6.72;0.98;;;;;;;;;;5148140;27;20075;-79
2022/05/11 07:06:41;;;;;;;9.45;0.90;;;;;;;;;;5131440;27;20062;-79
2022/05/11 07:09:08;;;;;;;6.63;0.90;;;;;;;;;;5152310;27;20051;-78
2022/05/11 07:14:20;;;;;;;4.82;1.08;;;;;;;;;;5146590;27;20057;-78
2022/05/11 07:16:46;;;;;;;7.53;1.17;;;;;;;;;;5150220;27;20079;-79
2022/05/11 07:19:13;;;;;;;4.07;0.88;;;;;;;;;;5151883;27;20043;-79
2022/05/11 07:21:39;;;;;;;6.55;1.10;;;;;;;;;;5150858;27;20307;-79
2022/05/11 07:24:06;;;;;;;6.13;1.10;;;;;;;;;;5155368;27;20051;-79
2022/05/11 07:26:32;;;;;;;7.03;1.17;;;;;;;;;;5133300;27;20139;-79
2022/05/11 07:28:58;;;;;;;6.60;1.27;;;;;;;;;;5152358;27;20118;-79
2022/05/11 07:31:25;;;;;;;6.30;1.17;;;;;;;;;;5153127;27;20043;-79
2022/05/11 07:33:51;;;;;;;6.30;1.13;;;;;;;;;;5149143;27;20057;-79
2022/05/11 07:36:19;;;;;;;3.97;0.77;;;;;;;;;;5151334;27;20859;-79
2022/05/11 07:38:46;;;;;;;7.28;0.90;;;;;;;;;;5150068;27;20571;-79
2022/05/11 07:41:12;;;;;;;5.00;1.00;;;;;;;;;;5150342;27;20055;-79
2022/05/11 07:43:38;;;;;;;6.28;0.93;;;;;;;;;;5147890;27;20051;-79
2022/05/11 07:46:05;;;;;;;5.20;0.90;;;;;;;;;;5146894;27;20507;-79
2022/05/11 07:48:31;;;;;;;4.80;1.02;;;;;;;;;;5148679;27;20055;-79
2022/05/11 07:50:58;;;;;;;4.20;0.80;;;;;;;;;;5144646;27;20057;-78
2022/05/11 07:53:24;;;;;;;5.65;0.95;;;;;;;;;;5145575;27;20126;-78
2022/05/11 07:59:52;;;;;;;4.25;1.13;;;;;;;;;;5135535;27;20063;-78
2022/05/11 08:01:21;;;;;;;2.70;0.80;;;;;;;;;;5142734;27;20055;-79
2022/05/11 08:03:48;;;;;;;6.93;1.05;;;;;;;;;;5152276;27;20106;-79
2022/05/11 08:06:18;;;;;;;4.75;0.93;;;;;;;;;;5137468;27;20058;-79
2022/05/11 08:08:45;;;;;;;5.80;0.80;;;;;;;;;;5142206;27;20446;-79
2022/05/11 08:11:12;;;;;;;8.73;1.23;;;;;;;;;;5149557;27;20058;-79
2022/05/11 08:13:38;;;;;;;4.22;0.93;;;;;;;;;;5156170;27;20047;-78
2022/05/11 08:16:05;;;;;;;4.07;1.00;;;;;;;;;;5141528;27;20052;-77
2022/05/11 08:18:31;;;;;;;6.03;0.90;;;;;;;;;;5139402;27;20271;-78
2022/05/11 08:20:57;;;;;;;4.90;0.90;;;;;;;;;;5139644;27;20589;-78
2022/05/11 08:23:26;;;;;;;4.07;0.80;;;;;;;;;;5139850;27;20067;-77
2022/05/11 08:25:56;;;;;;;5.20;1.00;;;;;;;;;;5136595;27;20058;-78
2022/05/11 08:28:24;;;;;;;11.40;1.10;;;;;;;;;;5138256;27;20126;-78
2022/05/11 08:33:38;;;;;;;4.80;1.00;;;;;;;;;;5146858;27;20051;-78
2022/05/11 08:36:26;;;;;;;10.23;1.10;;;;;;;;;;5141477;27;20051;-78
2022/05/11 08:38:57;;;;;;;5.50;0.82;;;;;;;;;;5147072;27;20063;-78
2022/05/11 08:41:23;;;;;;;;;;;;;;;;;;5143037;27;20491;-78
2022/05/11 08:43:50;;;;;;;6.13;1.15;;;;;;;;;;5146704;27;45875;-79
2022/05/11 08:46:35;;;;;;;4.80;0.90;;;;;;;;;;5147314;27;20063;-78
2022/05/11 08:49:04;;;;;;;5.93;1.00;;;;;;;;;;5145292;27;20092;-78
2022/05/11 08:51:34;;;;;;;3.80;0.80;;;;;;;;;;5143873;27;20101;-78
2022/05/11 08:54:15;;;;;;;8.68;1.08;;;;;;;;;;5145165;27;20047;-78
2022/05/11 08:56:43;;;;;;;4.07;0.93;;;;;;;;;;5145935;27;20057;-78
2022/05/11 08:59:16;;;;;;;5.45;1.20;;;;;;;;;;5147253;27;20526;-78
2022/05/11 09:01:49;;;;;;;4.43;0.90;;;;;;;;;;5125332;27;20589;-78
2022/05/11 09:04:19;;;;;;;4.72;1.08;;;;;;;;;;5146818;27;20062;-78
2022/05/11 09:06:45;;;;;;;4.85;1.25;;;;;;;;;;5145658;27;20531;-78
2022/05/11 09:09:14;;;;;;;8.27;0.90;;;;;;;;;;5146012;27;20125;-78
2022/05/11 09:11:42;;;;;;;4.65;1.08;;;;;;;;;;5146638;27;20108;-78
2022/05/11 09:14:12;;;;;;;7.50;1.10;;;;;;;;;;5147721;27;20096;-78
2022/05/11 09:16:39;;;;;;;;;;;;;;;;;;5141994;27;20061;-78
2022/05/11 09:19:09;;;;;;;6.75;1.20;;;;;;;;;;5143949;27;44863;-78
2022/05/11 09:21:36;;;;;;;5.55;1.08;;;;;;;;;;5146511;27;20578;-78
2022/05/11 09:24:08;;;;;;;4.25;1.00;;;;;;;;;;5145578;27;20051;-78
2022/05/11 09:26:39;;;;;;;3.25;0.77;;;;;;;;;;5139863;27;20096;-78
2022/05/11 09:29:16;;;;;;;3.92;0.90;;;;;;;;;;5146794;27;20066;-78
2022/05/11 09:31:45;;;;;;;7.07;0.80;;;;;;;;;;5146139;27;20062;-78
2022/05/11 09:34:14;;;;;;;4.25;0.70;;;;;;;;;;5128126;27;20580;-78
2022/05/11 09:36:56;;;;;;;4.57;0.73;;;;;;;;;;5136526;27;20057;-78
2022/05/11 09:39:23;;;;;;;4.20;1.02;;;;;;;;;;5145294;27;20075;-78
2022/05/11 09:41:50;;;;;;;5.85;1.10;;;;;;;;;;5143433;27;20464;-78
2022/05/11 09:44:21;;;;;;;3.92;0.73;;;;;;;;;;5145821;27;20614;-78
2022/05/11 09:46:48;;;;;;;4.68;0.80;;;;;;;;;;5137616;27;20138;-78
2022/05/11 09:49:17;;;;;;;5.03;1.02;;;;;;;;;;5144589;27;20583;-78
2022/05/11 09:51:46;;;;;;;8.30;1.17;;;;;;;;;;5145797;27;20094;-78
2022/05/11 09:54:38;;;;;;;4.40;0.75;;;;;;;;;;5145290;27;20055;-79
2022/05/11 09:57:18;;;;;;;7.63;1.10;;;;;;;;;;5145750;27;20044;-78
2022/05/11 09:59:46;;;;;;;5.40;0.93;;;;;;;;;;5152582;27;20052;-78
2022/05/11 10:02:22;;;;;;;4.13;0.90;;;;;;;;;;5146896;27;20138;-78
2022/05/11 10:05:04;;;;;;;6.68;1.05;;;;;;;;;;5146971;27;20043;-78
2022/05/11 10:07:36;;;;;;;5.25;1.10;;;;;;;;;;5147000;27;20062;-78
2022/05/11 10:10:05;;;;;;;7.50;1.10;;;;;;;;;;5143495;27;20177;-78
2022/05/11 10:12:32;;;;;;;;;;;;;;;;;;5145667;27;20502;-78
2022/05/11 10:23:37;;;;;;;4.03;1.08;;;;;;;;;;5151865;27;20142;-78
2022/05/11 10:26:05;;;;;;;9.05;1.50;;;;;;;;;;5148419;27;20055;-78
2022/05/11 10:28:48;;;;;;;6.65;1.02;;;;;;;;;;5145128;27;22355;-78
2022/05/11 10:31:33;;;;;;;8.02;1.40;;;;;;;;;;5142336;27;20556;-78
2022/05/11 10:34:16;;;;;;;5.40;1.27;;;;;;;;;;5146373;27;20135;-78
2022/05/11 10:36:51;;;;;;;10.85;1.55;;;;;;;;;;5150125;27;20047;-78
2022/05/11 10:39:24;;;;;;;6.40;0.90;;;;;;;;;;5148782;27;20595;-78
2022/05/11 10:41:52;;;;;;;7.88;1.70;;;;;;;;;;5146172;27;20199;-78
2022/05/11 10:44:43;;;;;;;7.65;1.08;;;;;;;;;;5140175;27;20808;-78
2022/05/11 10:47:28;;;;;;;4.13;1.02;;;;;;;;;;5137604;27;22452;-78
2022/05/11 10:50:14;;;;;;;6.53;1.40;;;;;;;;;;5160754;27;20074;-78
2022/05/11 10:52:46;;;;;;;7.65;1.35;;;;;;;;;;5142435;27;20058;-79
2022/05/11 10:55:34;;;;;;;5.22;1.17;;;;;;;;;;5136159;27;20082;-78
2022/05/11 10:58:04;;;;;;;5.22;1.23;;;;;;;;;;5131803;27;20051;-78
2022/05/11 11:00:37;;;;;;;7.63;1.50;;;;;;;;;;5137384;27;20146;-78
2022/05/11 11:03:07;;;;;;;5.32;1.30;;;;;;;;;;5134107;27;20512;-78
2022/05/11 11:05:33;;;;;;;5.18;1.20;;;;;;;;;;5131494;27;20052;-78
2022/05/11 11:08:05;;;;;;;6.53;1.30;;;;;;;;;;5145951;27;20138;-78
2022/05/11 11:10:58;;;;;;;7.10;1.40;;;;;;;;;;5144525;27;20106;-78
2022/05/11 11:13:40;;;;;;;8.35;1.20;;;;;;;;;;5126235;27;20074;-78
2022/05/11 11:16:08;;;;;;;6.35;1.30;;;;;;;;;;5134010;27;20057;-78
2022/05/11 11:18:36;;;;;;;5.78;1.10;;;;;;;;;;5145709;27;20096;-78
2022/05/11 11:21:03;;;;;;;5.38;1.10;;;;;;;;;;5135685;27;20065;-78
2022/05/11 11:23:34;;;;;;;5.68;1.10;;;;;;;;;;5141211;27;20134;-78
2022/05/11 11:26:04;;;;;;;8.25;1.17;;;;;;;;;;5132610;27;20047;-78
2022/05/11 11:28:33;;;;;;;4.30;1.20;;;;;;;;;;5144199;27;20141;-78
2022/05/11 11:31:00;;;;;;;4.45;1.10;;;;;;;;;;5144761;27;20169;-78
2022/05/11 11:33:26;;;;;;;4.05;1.13;;;;;;;;;;5134558;27;20095;-78
2022/05/11 11:35:53;;;;;;;5.75;0.90;;;;;;;;;;5138909;27;20109;-78
2022/05/11 11:38:23;;;;;;;8.60;1.27;;;;;;;;;;5144727;27;20055;-78
2022/05/11 11:41:08;;;;;;;6.38;1.00;;;;;;;;;;5142455;27;20055;-78
2022/05/11 11:43:54;;;;;;;8.75;1.80;;;;;;;;;;5139877;27;20061;-78
2022/05/11 11:46:26;;;;;;;4.88;1.15;;;;;;;;;;5134981;27;20195;-78
2022/05/11 11:49:07;;;;;;;5.68;1.30;;;;;;;;;;5140696;27;20055;-78
2022/05/11 11:51:49;;;;;;;5.93;1.48;;;;;;;;;;5135771;27;20051;-79
2022/05/11 11:54:34;;;;;;;5.18;1.23;;;;;;;;;;5137735;27;20062;-79
2022/05/11 11:57:02;;;;;;;6.18;1.20;;;;;;;;;;5142444;27;20055;-78
2022/05/11 11:59:28;;;;;;;7.80;1.05;;;;;;;;;;5140413;27;20431;-78
2022/05/11 12:02:04;;;;;;;4.57;1.13;;;;;;;;;;5146908;27;20096;-78
2022/05/11 12:04:34;;;;;;;6.80;1.20;;;;;;;;;;5145625;27;20101;-79
2022/05/11 12:15:30;;;;;;;8.32;1.45;;;;;;;;;;5145363;27;20637;-78
2022/05/11 12:17:56;;;;;;;8.40;1.15;;;;;;;;;;5142838;27;20055;-78
2022/05/11 12:20:23;;;;;;;6.28;1.35;;;;;;;;;;5144130;27;20062;-78
2022/05/11 12:22:51;;;;;;;7.70;1.40;;;;;;;;;;5137875;27;20142;-78
2022/05/11 12:25:20;;;;;;;7.22;1.20;;;;;;;;;;5138750;27;20871;-78
2022/05/11 12:27:47;;;;;;;8.07;1.53;;;;;;;;;;5140641;27;20217;-78
2022/05/11 12:30:20;;;;;;;5.30;1.27;;;;;;;;;;5146409;27;20051;-78
2022/05/11 12:33:03;;;;;;;6.30;1.50;;;;;;;;;;5143026;27;20860;-79
2022/05/11 12:35:33;;;;;;;9.88;1.77;;;;;;;;;;5144122;27;20051;-78
2022/05/11 12:38:01;;;;;;;7.43;1.52;;;;;;;;;;5145486;27;20567;-78
2022/05/11 12:40:27;;;;;;;7.03;1.80;;;;;;;;;;5142041;27;20541;-78
2022/05/11 12:42:58;;;;;;;8.25;1.60;;;;;;;;;;5134030;27;20838;-78
2022/05/11 12:45:31;;;;;;;6.88;1.30;;;;;;;;;;5143316;27;20461;-78
2022/05/11 12:47:59;;;;;;;6.65;1.67;;;;;;;;;;5144203;27;20146;-78
2022/05/11 12:50:27;;;;;;;7.25;1.63;;;;;;;;;;5143072;27;20100;-78
2022/05/11 12:53:20;;;;;;;6.15;1.40;;;;;;;;;;5146430;27;20447;-78
2022/05/11 12:55:49;;;;;;;6.00;1.48;;;;;;;;;;5138283;27;20062;-78
2022/05/11 12:58:23;;;;;;;6.07;1.90;;;;;;;;;;5143837;27;20062;-78
2022/05/11 13:01:05;;;;;;;5.97;1.77;;;;;;;;;;5142586;27;20135;-78
2022/05/11 13:03:36;;;;;;;8.68;1.90;;;;;;;;;;5136018;27;20097;-78
2022/05/11 13:06:05;;;;;;;8.27;2.22;;;;;;;;;;5136263;27;20089;-78
2022/05/11 13:08:58;;;;;;;7.80;1.90;;;;;;;;;;5140924;27;20065;-78
2022/05/11 13:11:26;;;;;;;7.65;1.63;;;;;;;;;;5132514;27;20142;-77
2022/05/11 13:13:55;;;;;;;5.60;1.55;;;;;;;;;;5134274;27;20557;-79
2022/05/11 13:16:23;;;;;;;11.38;1.92;;;;;;;;;;5142392;27;20057;-78
2022/05/11 13:18:50;;;;;;;8.32;2.05;;;;;;;;;;5140933;27;20100;-77
2022/05/11 13:21:31;;;;;;;8.25;1.77;;;;;;;;;;5139680;27;20055;-80
2022/05/11 13:23:57;;;;;;;9.20;2.35;;;;;;;;;;5138408;27;22076;-79
2022/05/11 13:26:40;;;;;;;7.70;2.42;;;;;;;;;;5137122;27;20055;-77
2022/05/11 13:29:17;;;;;;;7.57;2.13;;;;;;;;;;5132399;27;20101;-78
2022/05/11 13:31:46;;;;;;;8.55;2.30;;;;;;;;;;5131401;27;20494;-79
2022/05/11 13:34:30;;;;;;;8.07;2.40;;;;;;;;;;5134936;27;20511;-78
2022/05/11 13:36:57;;;;;;;11.65;2.50;;;;;;;;;;5132348;27;20142;-78
2022/05/11 13:39:37;;;;;;;8.80;2.40;;;;;;;;;;5134516;27;20055;-78
2022/05/11 13:42:11;;;;;;;6.57;2.45;;;;;;;;;;5134468;27;20469;-77
2022/05/11 13:44:42;;;;;;;11.10;2.50;;;;;;;;;;5135526;27;20049;-79
2022/05/11 13:50:25;;;;;;;8.10;2.22;;;;;;;;;;5139810;27;20507;-79
2022/05/11 13:52:53;;;;;;;13.13;2.40;;;;;;;;;;5140731;27;20751;-79
2022/05/11 13:55:29;;;;;;;11.68;2.63;;;;;;;;;;5144344;27;20086;-79
2022/05/11 13:57:55;;;;;;;7.57;2.35;;;;;;;;;;5165641;27;20078;-78
2022/05/11 14:00:24;;;;;;;10.38;2.35;;;;;;;;;;5143318;27;21203;-79
2022/05/11 14:03:00;;;;;;;8.70;2.55;;;;;;;;;;5148143;27;20485;-78
2022/05/11 14:05:27;;;;;;;10.65;2.72;;;;;;;;;;5142751;27;20051;-78
2022/05/11 14:07:56;;;;;;;11.93;2.70;;;;;;;;;;5153425;27;20061;-78
2022/05/11 14:10:23;;;;;;;9.75;2.70;;;;;;;;;;5145754;27;20104;-81
2022/05/11 14:12:49;;;;;;;8.63;2.40;;;;;;;;;;5140682;27;20078;-79
2022/05/11 14:15:16;;;;;;;7.80;2.22;;;;;;;;;;5146207;27;20135;-79
2022/05/11 14:17:48;;;;;;;9.38;2.40;;;;;;;;;;5137992;27;20447;-79
2022/05/11 14:20:19;;;;;;;11.70;2.42;;;;;;;;;;5144257;27;20061;-78
2022/05/11 14:22:45;;;;;;;12.25;2.65;;;;;;;;;;5145974;27;20127;-78
2022/05/11 14:25:13;;;;;;;14.93;2.58;;;;;;;;;;5137550;27;20053;-78
2022/05/11 14:27:46;;;;;;;11.77;2.22;;;;;;;;;;5147084;27;20549;-79
2022/05/11 14:30:13;;;;;;;11.23;2.65;;;;;;;;;;5146281;27;20179;-78
2022/05/11 14:32:45;;;;;;;7.20;2.25;;;;;;;;;;5141612;27;20047;-79
2022/05/11 14:35:16;;;;;;;8.90;2.53;;;;;;;;;;5146183;27;20142;-79
2022/05/11 14:37:43;;;;;;;10.13;2.05;;;;;;;;;;5144774;27;20583;-79
2022/05/11 14:40:14;;;;;;;9.15;2.00;;;;;;;;;;5145942;27;20055;-78
2022/05/11 14:42:41;;;;;;;9.35;2.47;;;;;;;;;;5144987;27;20248;-78
2022/05/11 14:45:07;;;;;;;9.80;2.22;;;;;;;;;;5145656;27;20051;-78
2022/05/11 14:47:41;;;;;;;14.05;2.72;;;;;;;;;;5144607;27;20051;-79
2022/05/11 14:50:11;;;;;;;9.10;2.00;;;;;;;;;;5146016;27;20449;-79
2022/05/11 14:52:38;;;;;;;;;;;;;;;;;;5139329;27;20052;-78
2022/05/11 14:55:06;;;;;;;11.25;2.50;;;;;;;;;;5140715;27;41670;-78
2022/05/11 15:03:03;;;;;;;9.45;2.30;;;;;;;;;;5139683;27;20060;-79
2022/05/11 15:05:29;;;;;;;10.25;2.42;;;;;;;;;;5139969;27;20075;-79
2022/05/11 15:07:57;;;;;;;8.40;2.10;;;;;;;;;;5143691;27;20131;-78
2022/05/11 15:10:23;;;;;;;8.60;2.30;;;;;;;;;;5136034;27;20057;-78
2022/05/11 15:15:35;;;;;;;6.25;2.25;;;;;;;;;;5144394;27;20590;-78
2022/05/11 15:18:05;;;;;;;9.50;2.20;;;;;;;;;;5140640;27;20057;-79
2022/05/11 15:20:31;;;;;;;13.02;2.60;;;;;;;;;;5155396;27;20523;-78
2022/05/11 15:22:58;;;;;;;8.80;2.28;;;;;;;;;;5144888;27;20578;-78
2022/05/11 15:25:25;;;;;;;9.90;2.60;;;;;;;;;;5146416;27;20050;-78
2022/05/11 15:27:52;;;;;;;11.75;2.90;;;;;;;;;;5144644;27;20055;-79
2022/05/11 15:30:20;;;;;;;9.05;2.40;;;;;;;;;;5142364;27;20055;-78
2022/05/11 15:32:47;;;;;;;12.68;2.88;;;;;;;;;;5145043;27;20049;-78
2022/05/11 15:35:14;;;;;;;9.50;2.47;;;;;;;;;;5145134;27;20055;-79
2022/05/11 15:37:40;;;;;;;15.05;2.30;;;;;;;;;;5139889;27;20142;-79
2022/05/11 15:40:07;;;;;;;10.30;2.45;;;;;;;;;;5146885;27;20868;-79
2022/05/11 15:42:35;;;;;;;11.55;2.85;;;;;;;;;;5145166;27;20138;-79
2022/05/11 15:45:03;;;;;;;8.90;2.28;;;;;;;;;;5138220;27;20059;-79
2022/05/11 15:47:32;;;;;;;13.63;3.05;;;;;;;;;;5139376;27;20055;-79